Time;durP1;ratioP1;P1;durP2;ratioP2;P2;SDS_P1;SDS_P2;PMS_P1;PMS_P2;Temp;Humidity;BMP_temperature;BMP_pressure;BME280_temperature;BME280_humidity;BME280_pressure;Samples;Min_cycle;Max_cycle;Signal;HPM_P1;HPM_P2
2022/10/22 00:01:08;;;;;;;0.75;0.73;;;14.80;99.90;;;17.77;55.67;97322.38;4925064;29;20052;-47
2022/10/22 00:03:36;;;;;;;0.63;0.60;;;14.80;99.90;;;17.70;55.83;97319.75;4925618;29;20048;-48
2022/10/22 00:06:04;;;;;;;0.82;0.82;;;14.80;99.90;;;17.72;55.59;97323.03;4924796;29;20048;-49
2022/10/22 00:08:32;;;;;;;0.60;0.50;;;14.80;99.90;;;17.74;55.79;97320.09;4925358;29;20058;-50
2022/10/22 00:11:13;;;;;;;1.02;0.80;;;14.80;99.90;;;17.61;55.91;97321.84;4928846;29;20071;-49
2022/10/22 00:13:41;;;;;;;0.52;0.50;;;14.80;99.90;;;17.61;55.83;97332.59;4929030;29;20058;-48
2022/10/22 00:16:10;;;;;;;1.02;0.88;;;14.70;99.90;;;17.57;55.86;97336.75;4927951;29;20253;-48
2022/10/22 00:18:39;;;;;;;0.60;0.60;;;14.70;99.90;;;17.55;56.21;97338.03;4928788;29;20056;-51
2022/10/22 00:21:07;;;;;;;0.88;0.65;;;14.70;99.90;;;17.51;56.66;97343.00;4928525;29;20219;-50
2022/10/22 00:23:38;;;;;;;0.57;0.50;;;14.70;99.90;;;17.51;56.46;97349.19;4928667;29;20052;-47
2022/10/22 00:26:07;;;;;;;0.52;0.50;;;14.70;99.90;;;17.56;56.47;97353.13;4928102;29;20044;-48
2022/10/22 00:28:35;;;;;;;0.93;0.80;;;14.70;99.90;;;17.56;56.52;97359.31;4912018;29;20055;-50
2022/10/22 00:31:03;;;;;;;3.40;0.70;;;14.80;99.90;;;17.49;56.80;97362.03;4928668;29;20048;-48
2022/10/22 00:33:31;;;;;;;0.50;0.40;;;14.70;99.90;;;17.49;56.95;97351.28;4911150;29;20060;-50
2022/10/22 00:35:59;;;;;;;2.08;0.55;;;14.70;99.90;;;17.48;56.73;97360.38;4928002;29;20059;-48
2022/10/22 00:38:27;;;;;;;3.00;0.70;;;14.70;99.90;;;17.48;56.84;97354.19;4928284;29;20051;-52
2022/10/22 00:40:55;;;;;;;1.48;0.68;;;14.70;99.90;;;17.41;56.88;97348.84;4928424;29;20052;-46
2022/10/22 00:43:24;;;;;;;0.85;0.60;;;14.60;99.90;;;17.47;56.64;97352.53;4911037;29;20056;-52
2022/10/22 00:45:51;;;;;;;1.02;0.60;;;14.70;99.90;;;17.43;57.14;97354.00;4926813;29;20055;-50
2022/10/22 00:48:26;;;;;;;1.23;0.50;;;14.70;99.90;;;17.46;57.17;97353.56;4927174;29;20048;-48
2022/10/22 00:51:01;;;;;;;0.60;0.50;;;14.70;99.90;;;17.45;57.13;97352.75;4928390;29;20052;-51
2022/10/22 00:53:48;;;;;;;0.70;0.50;;;14.70;99.90;;;17.42;57.21;97338.88;4928169;29;20052;-47
2022/10/22 00:56:16;;;;;;;1.13;0.60;;;14.70;99.90;;;17.35;57.42;97330.84;4911774;29;20215;-48
2022/10/22 00:58:51;;;;;;;0.98;0.52;;;14.60;99.90;;;17.31;57.79;97318.84;4911358;29;20062;-48
2022/10/22 01:01:29;;;;;;;0.50;0.50;;;14.60;99.90;;;17.39;57.54;97309.69;4927168;29;20052;-50
2022/10/22 01:03:57;;;;;;;0.88;0.65;;;14.50;99.90;;;17.39;57.40;97294.41;4927606;29;20257;-52
2022/10/22 01:06:32;;;;;;;0.60;0.60;;;14.50;99.90;;;17.44;57.46;97280.31;4927449;29;20056;-49
2022/10/22 01:09:25;;;;;;;0.40;0.40;;;14.60;99.90;;;17.46;57.41;97272.84;4928391;29;20048;-46
2022/10/22 01:12:26;;;;;;;0.70;0.70;;;14.60;99.90;;;17.50;57.28;97277.56;4911402;29;20060;-49
2022/10/22 01:15:38;;;;;;;0.80;0.55;;;14.70;99.90;;;17.52;57.16;97288.97;4927340;29;20052;-47
2022/10/22 01:18:13;;;;;;;1.77;0.60;;;14.70;99.90;;;17.56;57.25;97301.97;4927862;29;20086;-47
2022/10/22 01:21:01;;;;;;;2.63;0.88;;;14.60;99.90;;;17.58;56.93;97305.28;4911072;29;20121;-47
2022/10/22 01:24:10;;;;;;;0.50;0.50;;;14.70;99.90;;;17.53;57.04;97287.09;4911236;29;20377;-46
2022/10/22 01:27:17;;;;;;;2.00;0.73;;;14.70;99.90;;;17.55;57.04;97294.97;4920467;29;20055;-48
2022/10/22 01:29:56;;;;;;;0.60;0.52;;;14.70;99.90;;;17.48;57.19;97317.31;4913552;29;20360;-49
2022/10/22 01:32:27;;;;;;;0.52;0.47;;;14.60;99.90;;;17.49;57.22;97310.09;4911486;29;20350;-50
2022/10/22 01:35:00;;;;;;;0.75;0.75;;;14.60;99.90;;;17.51;57.25;97295.38;4926918;29;20060;-48
2022/10/22 01:37:30;;;;;;;;;;;14.60;99.90;;;17.58;56.76;97298.03;4927831;29;20059;-46
2022/10/22 01:40:00;;;;;;;0.43;0.43;;;14.70;99.90;;;17.63;56.54;97310.84;4926322;29;19925;-46
2022/10/22 01:42:28;;;;;;;0.77;0.47;;;14.70;99.90;;;17.58;56.71;97324.13;4925495;29;20078;-50
2022/10/22 01:44:56;;;;;;;1.05;0.60;;;14.70;99.90;;;17.59;56.66;97337.38;4926826;29;20059;-47
2022/10/22 01:47:55;;;;;;;2.95;0.70;;;14.80;99.90;;;17.57;56.79;97330.56;4927290;29;20078;-47
2022/10/22 01:51:01;;;;;;;0.70;0.60;;;14.80;99.90;;;17.54;56.83;97337.19;4927098;29;20066;-46
2022/10/22 01:53:43;;;;;;;2.38;0.70;;;14.80;99.90;;;17.55;56.74;97340.72;4927026;29;20054;-48
2022/10/22 01:56:40;;;;;;;1.00;0.63;;;14.80;99.90;;;17.50;56.93;97360.16;4925490;29;20243;-48
2022/10/22 01:59:25;;;;;;;1.88;0.63;;;14.90;99.90;;;17.55;56.81;97367.63;4926998;29;20052;-47
2022/10/22 02:02:03;;;;;;;0.60;0.47;;;14.90;99.90;;;17.59;56.85;97361.59;4925293;29;20051;-50
2022/10/22 02:04:43;;;;;;;1.83;0.98;;;14.90;99.90;;;17.55;57.03;97360.38;4926022;29;20070;-49
2022/10/22 02:07:17;;;;;;;1.23;0.63;;;14.80;99.90;;;17.58;57.17;97370.69;4926931;29;20052;-50
2022/10/22 02:09:48;;;;;;;1.23;0.40;;;14.70;99.90;;;17.39;57.57;97376.97;4925737;29;20060;-50
2022/10/22 02:12:20;;;;;;;0.65;0.50;;;14.60;99.90;;;17.22;57.86;97382.00;4927142;29;20062;-46
2022/10/22 02:14:49;;;;;;;0.95;0.30;;;14.40;99.90;;;17.22;58.05;97376.63;4925273;29;20082;-50
2022/10/22 02:17:21;;;;;;;1.17;0.60;;;14.40;99.90;;;17.31;57.99;97372.63;4926895;29;20376;-46
2022/10/22 02:20:00;;;;;;;0.50;0.50;;;14.50;99.90;;;17.36;57.67;97369.34;4925184;29;20060;-50
2022/10/22 02:22:29;;;;;;;3.20;1.75;;;14.50;99.90;;;17.40;57.55;97382.16;4926741;29;20109;-47
2022/10/22 02:24:57;;;;;;;0.60;0.57;;;14.50;99.90;;;17.45;57.52;97387.72;4924947;29;20375;-52
2022/10/22 02:27:52;;;;;;;0.52;0.52;;;14.60;99.90;;;17.47;57.57;97377.56;4910138;29;20051;-47
2022/10/22 02:30:22;;;;;;;1.92;0.75;;;14.60;99.90;;;17.48;57.73;97379.22;4925423;29;20048;-48
2022/10/22 02:33:11;;;;;;;0.43;0.43;;;14.60;99.90;;;17.51;57.55;97378.81;4925844;29;20250;-48
2022/10/22 02:35:41;;;;;;;2.15;0.75;;;14.60;99.90;;;17.50;57.48;97363.69;4925363;29;20064;-49
2022/10/22 02:38:11;;;;;;;1.98;0.60;;;14.50;99.90;;;17.48;57.61;97357.69;4924697;29;20060;-52
2022/10/22 02:40:39;;;;;;;3.33;0.93;;;14.60;99.90;;;17.49;57.68;97351.28;4925313;29;20052;-46
2022/10/22 02:43:07;;;;;;;1.00;0.95;;;14.60;99.90;;;17.51;57.62;97334.94;4926242;29;20249;-49
2022/10/22 02:45:35;;;;;;;1.05;0.70;;;14.60;99.90;;;17.46;57.48;97327.47;4924561;29;20346;-47
2022/10/22 02:48:03;;;;;;;0.60;0.60;;;14.50;99.90;;;17.46;57.37;97314.03;4925956;29;20253;-50
2022/10/22 02:50:31;;;;;;;1.08;0.70;;;14.50;99.90;;;17.47;57.68;97321.06;4925977;29;20044;-47
2022/10/22 02:52:59;;;;;;;0.43;0.40;;;14.60;99.90;;;17.45;57.51;97319.63;4926259;29;20048;-50
2022/10/22 02:55:27;;;;;;;2.35;0.95;;;14.50;99.90;;;17.42;57.71;97311.97;4925777;29;20368;-50
2022/10/22 02:57:55;;;;;;;0.90;0.70;;;14.40;99.90;;;17.44;57.53;97313.41;4925711;29;20051;-48
2022/10/22 03:00:23;;;;;;;0.95;0.52;;;14.40;99.90;;;17.43;57.65;97322.53;4926056;29;20078;-48
2022/10/22 03:02:51;;;;;;;1.48;0.82;;;14.40;99.90;;;17.41;57.49;97331.84;4925273;29;20227;-50
2022/10/22 03:05:19;;;;;;;2.75;0.43;;;14.50;99.90;;;17.36;57.86;97331.66;4925598;29;20062;-51
2022/10/22 03:07:46;;;;;;;1.13;0.90;;;14.40;99.90;;;17.34;58.12;97342.63;4924858;29;20075;-52
2022/10/22 03:10:14;;;;;;;1.77;1.17;;;14.40;99.90;;;17.35;57.87;97344.31;4925046;29;20054;-51
2022/10/22 03:12:42;;;;;;;2.80;0.75;;;14.40;99.90;;;17.39;57.66;97344.69;4924800;29;20048;-48
2022/10/22 03:15:10;;;;;;;2.72;0.70;;;14.40;99.90;;;17.38;57.71;97338.47;4925559;29;20360;-47
2022/10/22 03:17:38;;;;;;;0.75;0.60;;;14.40;99.90;;;17.41;57.59;97334.53;4925564;29;20079;-48
2022/10/22 03:20:07;;;;;;;0.85;0.70;;;14.40;99.90;;;17.45;57.48;97339.28;4925894;29;20051;-50
2022/10/22 03:22:38;;;;;;;0.60;0.60;;;14.50;99.90;;;17.43;57.45;97333.31;4924781;29;20047;-49
2022/10/22 03:25:17;;;;;;;1.65;0.57;;;14.50;99.90;;;17.43;57.49;97319.84;4924456;29;20058;-49
2022/10/22 03:27:46;;;;;;;1.90;0.60;;;14.50;99.90;;;17.42;57.30;97326.25;4924637;29;20056;-48
2022/10/22 03:30:14;;;;;;;2.33;0.70;;;14.60;99.90;;;17.35;57.60;97325.47;4925874;29;20060;-48
2022/10/22 03:32:42;;;;;;;1.85;1.05;;;14.50;99.90;;;17.35;57.44;97324.63;4924934;29;20379;-49
2022/10/22 03:35:10;;;;;;;0.50;0.50;;;14.50;99.90;;;17.37;57.29;97314.47;4924917;29;20056;-52
2022/10/22 03:37:38;;;;;;;0.57;0.57;;;14.50;99.90;;;17.43;57.08;97311.78;4925688;29;20054;-49
2022/10/22 03:40:08;;;;;;;1.00;0.35;;;14.60;99.90;;;17.45;57.08;97304.31;4925716;29;20056;-50
2022/10/22 03:42:36;;;;;;;1.55;0.55;;;14.60;99.90;;;17.44;57.08;97302.66;4908994;29;20055;-50
2022/10/22 03:45:05;;;;;;;0.60;0.60;;;14.60;99.90;;;17.41;57.16;97302.25;4927175;29;20239;-51
2022/10/22 03:47:33;;;;;;;1.00;0.70;;;14.60;99.90;;;17.35;57.21;97305.78;4928044;29;20058;-46
2022/10/22 03:50:02;;;;;;;1.33;0.73;;;14.50;99.90;;;17.39;57.13;97297.09;4928585;29;20063;-48
2022/10/22 03:52:38;;;;;;;2.47;0.85;;;14.50;99.90;;;17.40;57.18;97300.59;4929436;29;20048;-49
2022/10/22 03:55:07;;;;;;;0.45;0.45;;;14.50;99.90;;;17.45;57.45;97308.88;4928890;29;20070;-48
2022/10/22 03:57:35;;;;;;;2.95;1.02;;;14.60;99.90;;;17.43;56.73;97319.84;4928788;29;20400;-48
2022/10/22 04:00:06;;;;;;;0.95;0.82;;;14.60;99.90;;;17.48;56.86;97336.16;4929003;29;20044;-51
2022/10/22 04:02:33;;;;;;;1.27;0.60;;;14.60;99.90;;;17.44;56.62;97345.69;4911745;29;20389;-48
2022/10/22 04:05:02;;;;;;;1.48;0.45;;;14.60;99.90;;;17.48;56.39;97348.78;4928530;29;20048;-49
2022/10/22 04:07:30;;;;;;;1.45;0.50;;;14.60;99.90;;;17.41;56.37;97350.66;4928760;29;20423;-50
2022/10/22 04:09:57;;;;;;;2.83;0.70;;;14.60;99.90;;;17.50;56.52;97338.63;4912302;29;20071;-47
2022/10/22 04:12:25;;;;;;;1.17;0.60;;;14.60;99.90;;;17.51;56.25;97338.44;4912283;29;20074;-47
2022/10/22 04:14:53;;;;;;;1.45;0.70;;;14.60;99.90;;;17.50;56.25;97330.56;4928605;29;20055;-48
2022/10/22 04:17:21;;;;;;;1.75;0.85;;;14.70;99.90;;;17.50;56.21;97335.94;4928651;29;20357;-47
2022/10/22 04:19:49;;;;;;;0.45;0.45;;;14.70;99.90;;;17.50;56.14;97346.72;4911861;29;20062;-48
2022/10/22 04:22:17;;;;;;;0.60;0.35;;;14.60;99.90;;;17.46;56.25;97354.38;4928193;29;20372;-48
2022/10/22 04:24:45;;;;;;;0.57;0.47;;;14.60;99.90;;;17.47;56.09;97364.13;4927990;29;20056;-50
2022/10/22 04:27:13;;;;;;;0.90;0.68;;;14.70;99.90;;;17.49;56.15;97358.53;4928678;29;20048;-47
2022/10/22 04:29:41;;;;;;;0.80;0.77;;;14.60;99.90;;;17.51;56.04;97362.66;4928767;29;20051;-51
2022/10/22 04:32:08;;;;;;;1.95;0.73;;;14.60;99.90;;;17.47;55.93;97364.13;4927999;29;20056;-47
2022/10/22 04:34:36;;;;;;;5.78;0.50;;;14.60;99.90;;;17.42;56.21;97358.53;4928072;29;20059;-48
2022/10/22 04:37:04;;;;;;;0.63;0.63;;;14.60;99.90;;;17.48;55.97;97363.06;4928440;29;20066;-48
2022/10/22 04:39:32;;;;;;;0.75;0.75;;;14.70;99.90;;;17.48;56.02;97359.56;4928420;29;20082;-47
2022/10/22 04:42:00;;;;;;;0.60;0.60;;;14.70;99.90;;;17.48;55.85;97365.75;4928365;29;20048;-48
2022/10/22 04:44:28;;;;;;;0.40;0.40;;;14.70;99.90;;;17.48;55.79;97371.13;4927994;29;20040;-48
2022/10/22 04:46:56;;;;;;;1.35;0.60;;;14.70;99.90;;;17.44;55.81;97372.59;4928139;29;20066;-48
2022/10/22 04:49:24;;;;;;;1.17;0.50;;;14.70;99.90;;;17.46;55.52;97361.63;4928090;29;20058;-49
2022/10/22 04:51:51;;;;;;;0.50;0.50;;;14.70;99.90;;;17.43;55.69;97365.59;4928307;29;20060;-47
2022/10/22 04:54:20;;;;;;;1.10;0.70;;;14.70;99.90;;;17.44;55.70;97364.53;4927580;29;20365;-51
2022/10/22 04:56:47;;;;;;;0.50;0.43;;;14.70;99.90;;;17.52;55.31;97372.41;4910698;29;20254;-51
2022/10/22 04:59:15;;;;;;;1.60;0.63;;;14.80;99.90;;;17.51;55.42;97370.72;4927941;29;20219;-48
2022/10/22 05:01:43;;;;;;;0.55;0.55;;;14.80;99.90;;;17.56;55.15;97372.78;4927854;29;20235;-50
2022/10/22 05:04:15;;;;;;;1.08;0.65;;;14.80;99.90;;;17.53;55.11;97381.28;4927568;29;20063;-50
2022/10/22 05:06:44;;;;;;;1.00;0.50;;;14.80;99.90;;;17.52;55.38;97377.78;4927944;29;20054;-51
2022/10/22 05:09:17;;;;;;;0.93;0.45;;;14.70;99.90;;;17.50;55.25;97387.09;4927908;29;20070;-48
2022/10/22 05:11:48;;;;;;;0.43;0.40;;;14.70;99.90;;;17.51;55.17;97383.38;4911750;29;20048;-51
2022/10/22 05:14:21;;;;;;;0.70;0.70;;;14.70;99.90;;;17.56;55.25;97390.78;4910358;29;20307;-47
2022/10/22 05:16:49;;;;;;;1.38;0.40;;;14.80;99.90;;;17.55;55.29;97387.28;4927473;29;20064;-50
2022/10/22 05:19:25;;;;;;;1.13;0.75;;;14.80;99.90;;;17.54;55.11;97390.19;4927486;29;20346;-49
2022/10/22 05:21:57;;;;;;;0.60;0.43;;;14.80;99.90;;;17.54;55.28;97395.56;4927942;29;20250;-49
2022/10/22 05:24:27;;;;;;;0.50;0.40;;;14.80;99.90;;;17.49;55.30;97397.03;4927244;29;20063;-46
2022/10/22 05:26:57;;;;;;;0.85;0.63;;;14.70;99.90;;;17.48;54.84;97405.31;4927651;29;20048;-46
2022/10/22 05:29:26;;;;;;;0.60;0.57;;;14.70;99.90;;;17.48;55.29;97416.06;4911295;29;20054;-47
2022/10/22 05:31:54;;;;;;;1.80;0.88;;;14.70;99.90;;;17.54;55.09;97412.53;4911071;29;20060;-49
2022/10/22 05:34:22;;;;;;;1.65;0.52;;;14.70;99.90;;;17.58;54.87;97429.09;4927064;29;20048;-48
2022/10/22 05:36:50;;;;;;;1.27;0.75;;;14.80;99.90;;;17.62;54.87;97433.84;4927398;29;20062;-49
2022/10/22 05:39:18;;;;;;;0.98;0.70;;;14.80;99.90;;;17.67;54.87;97431.34;4927470;29;20258;-50
2022/10/22 05:41:46;;;;;;;1.67;0.75;;;14.90;99.90;;;17.70;54.89;97441.69;4927285;29;20048;-51
2022/10/22 05:44:14;;;;;;;0.88;0.57;;;14.90;99.90;;;17.70;54.56;97448.97;4927255;29;20116;-48
2022/10/22 05:46:42;;;;;;;1.38;0.90;;;14.90;99.90;;;17.72;54.59;97452.25;4927010;29;20376;-50
2022/10/22 05:49:14;;;;;;;0.75;0.40;;;14.90;99.90;;;17.75;54.81;97456.38;4927055;29;20355;-49
2022/10/22 05:51:43;;;;;;;3.90;0.88;;;14.90;99.60;;;17.75;54.53;97459.06;4926629;29;20058;-46
2022/10/22 05:54:21;;;;;;;3.75;0.65;;;14.90;99.70;;;17.76;54.50;97458.03;4926486;29;20120;-50
2022/10/22 05:56:49;;;;;;;0.75;0.50;;;14.90;98.40;;;17.73;54.45;97461.16;4926367;29;20052;-47
2022/10/22 05:59:17;;;;;;;1.85;0.73;;;14.80;99.90;;;17.77;54.50;97457.81;4927093;29;20056;-50
2022/10/22 06:01:44;;;;;;;1.92;0.80;;;14.90;99.90;;;17.77;54.25;97460.50;4926389;29;20059;-50
2022/10/22 06:04:13;;;;;;;1.52;0.50;;;14.90;99.70;;;17.82;54.21;97455.34;4926750;29;20043;-48
2022/10/22 06:06:49;;;;;;;1.13;0.50;;;14.90;99.70;;;17.86;54.32;97463.84;4926373;29;20059;-50
2022/10/22 06:09:34;;;;;;;1.95;0.60;;;15.00;99.00;;;17.85;54.34;97470.25;4926765;29;20051;-48
2022/10/22 06:12:09;;;;;;;1.70;1.50;;;15.00;99.20;;;17.82;54.31;97476.06;4926853;29;20040;-48
2022/10/22 06:14:37;;;;;;;0.80;0.80;;;14.90;99.60;;;17.84;54.41;97482.09;4926217;29;20052;-48
2022/10/22 06:17:05;;;;;;;0.43;0.43;;;15.00;99.50;;;17.87;54.16;97489.72;4926614;29;20059;-47
2022/10/22 06:19:33;;;;;;;1.63;0.50;;;15.00;99.40;;;17.90;54.28;97494.69;4909582;29;20070;-47
2022/10/22 06:22:02;;;;;;;2.05;0.70;;;15.00;99.90;;;17.95;54.17;97497.59;4926734;29;20052;-49
2022/10/22 06:24:30;;;;;;;1.10;0.80;;;15.00;99.90;;;17.98;54.23;97499.03;4926043;29;20044;-46
2022/10/22 06:26:58;;;;;;;1.23;0.98;;;15.00;99.90;;;17.99;54.36;97506.03;4926038;29;20204;-47
2022/10/22 06:29:26;;;;;;;1.85;1.30;;;15.00;99.90;;;18.01;54.42;97509.34;4909343;29;20062;-49
2022/10/22 06:31:54;;;;;;;3.67;2.10;;;15.10;99.90;;;18.04;54.28;97517.03;4926448;29;20055;-48
2022/10/22 06:34:22;;;;;;;2.92;1.75;;;15.10;99.90;;;18.06;54.07;97517.63;4926163;29;20062;-47
2022/10/22 06:36:50;;;;;;;1.27;0.90;;;15.10;99.90;;;18.04;54.14;97520.53;4926237;29;20051;-47
2022/10/22 06:39:18;;;;;;;1.67;0.88;;;15.10;99.30;;;18.06;53.92;97525.72;4925984;29;20059;-48
2022/10/22 06:41:46;;;;;;;2.05;1.10;;;15.10;99.90;;;18.07;54.04;97532.78;4926141;29;20056;-47
2022/10/22 06:44:18;;;;;;;2.53;1.52;;;15.10;99.90;;;18.07;54.14;97535.47;4909597;29;20040;-47
2022/10/22 06:46:53;;;;;;;2.10;1.10;;;15.10;99.40;;;18.02;53.87;97537.97;4925655;29;20397;-48
2022/10/22 06:49:21;;;;;;;1.80;1.20;;;15.10;98.80;;;18.01;53.89;97541.69;4922534;29;20047;-49
2022/10/22 06:51:51;;;;;;;2.05;0.90;;;15.10;99.10;;;18.01;53.83;97539.84;4909800;29;20251;-47
2022/10/22 06:54:22;;;;;;;1.70;1.10;;;15.10;98.40;;;18.02;53.89;97551.44;4909178;29;20092;-49
2022/10/22 06:56:50;;;;;;;1.20;0.95;;;15.10;98.10;;;18.00;53.49;97556.19;4926021;29;20346;-53
2022/10/22 06:59:19;;;;;;;1.00;0.80;;;15.10;97.30;;;18.01;53.48;97565.91;4925402;29;20060;-47
2022/10/22 07:01:49;;;;;;;2.13;1.40;;;15.20;97.10;;;18.01;53.57;97563.22;4926176;29;20078;-51
2022/10/22 07:04:17;;;;;;;3.90;2.13;;;15.20;96.60;;;17.95;53.87;97564.06;4925373;29;20237;-46
2022/10/22 07:06:45;;;;;;;3.92;2.50;;;15.10;97.60;;;17.95;54.03;97567.63;4925848;29;20071;-51
2022/10/22 07:09:13;;;;;;;3.35;2.10;;;15.10;97.70;;;17.91;54.12;97571.72;4908621;29;20059;-47
2022/10/22 07:11:44;;;;;;;4.13;1.70;;;15.10;98.10;;;17.86;54.30;97577.75;4925146;29;20052;-49
2022/10/22 07:14:13;;;;;;;2.83;1.10;;;15.00;99.20;;;17.88;54.30;97577.56;4924569;29;20058;-48
2022/10/22 07:16:42;;;;;;;0.75;0.75;;;15.00;99.20;;;17.88;54.38;97585.63;4924835;29;20051;-47
2022/10/22 07:19:10;;;;;;;1.27;0.80;;;15.00;99.30;;;17.89;54.47;97596.22;4925069;29;20338;-48
2022/10/22 07:21:38;;;;;;;0.75;0.70;;;15.00;99.70;;;17.90;54.48;97599.72;4925649;29;20509;-48
2022/10/22 07:24:07;;;;;;;1.23;0.85;;;15.00;99.90;;;17.93;54.52;97599.28;4925566;29;20064;-49
2022/10/22 07:26:35;;;;;;;1.95;0.75;;;15.00;99.90;;;17.92;54.68;97596.81;4925372;29;20044;-47
2022/10/22 07:29:04;;;;;;;0.90;0.70;;;15.00;99.90;;;17.93;54.47;97598.47;4925815;29;20052;-49
2022/10/22 07:31:32;;;;;;;1.10;1.00;;;15.00;99.90;;;17.94;54.61;97600.13;4925576;29;20044;-48
2022/10/22 07:34:00;;;;;;;1.35;0.80;;;15.00;99.90;;;17.93;54.61;97599.28;4925496;29;20074;-47
2022/10/22 07:36:28;;;;;;;0.85;0.80;;;15.10;99.90;;;17.92;54.70;97600.34;4925333;29;20058;-47
2022/10/22 07:38:59;;;;;;;0.93;0.82;;;15.00;99.90;;;17.93;54.55;97606.53;4935053;29;20062;-46
2022/10/22 07:41:29;;;;;;;1.10;0.70;;;15.10;99.90;;;17.92;54.70;97610.28;4893519;29;20056;-46
2022/10/22 07:43:57;;;;;;;2.03;1.00;;;15.00;99.90;;;17.87;54.71;97609.06;4925682;29;20056;-48
2022/10/22 07:46:28;;;;;;;2.05;0.85;;;15.00;99.90;;;17.89;54.83;97611.50;4924935;29;20052;-48
2022/10/22 07:48:58;;;;;;;1.75;0.80;;;15.10;99.90;;;17.89;54.92;97615.06;4909135;29;20382;-47
2022/10/22 07:51:26;;;;;;;2.08;1.08;;;15.00;99.90;;;17.94;54.95;97616.28;4925562;29;20059;-46
2022/10/22 07:53:55;;;;;;;1.58;1.00;;;15.10;99.90;;;17.96;55.08;97617.72;4924781;29;20242;-47
2022/10/22 07:56:23;;;;;;;1.33;1.02;;;15.10;99.90;;;18.00;55.15;97615.44;4924554;29;20058;-48
2022/10/22 07:58:51;;;;;;;2.30;0.82;;;15.20;99.90;;;18.02;55.01;97616.06;4925465;29;20060;-48
2022/10/22 08:01:19;;;;;;;1.08;0.68;;;15.20;99.90;;;18.03;55.00;97609.63;4925543;29;20054;-47
2022/10/22 08:03:47;;;;;;;1.13;0.70;;;15.20;99.90;;;18.03;55.09;97615.00;4925353;29;20452;-48
2022/10/22 08:06:16;;;;;;;1.60;0.80;;;15.20;99.90;;;17.99;55.10;97616.47;4924862;29;20070;-48
2022/10/22 08:08:45;;;;;;;1.08;0.85;;;15.10;99.90;;;17.98;55.28;97612.13;4925109;29;20052;-48
2022/10/22 08:11:13;;;;;;;0.80;0.63;;;15.10;99.90;;;17.98;55.33;97620.22;4925467;29;20381;-51
2022/10/22 08:13:41;;;;;;;1.98;1.05;;;15.10;99.90;;;17.98;55.13;97618.34;4925545;29;20058;-47
2022/10/22 08:16:13;;;;;;;0.90;0.90;;;15.10;99.90;;;17.96;55.38;97622.28;4924684;29;20052;-47
2022/10/22 08:18:41;;;;;;;0.80;0.77;;;15.10;99.90;;;17.95;55.41;97620.63;4925527;29;20052;-46
2022/10/22 08:21:11;;;;;;;1.35;0.93;;;15.10;99.90;;;17.94;55.64;97624.38;4925165;29;20235;-47
2022/10/22 08:23:39;;;;;;;2.58;0.80;;;15.10;99.90;;;17.97;55.71;97627.47;4925253;29;20063;-48
2022/10/22 08:26:06;;;;;;;2.53;0.82;;;15.20;99.90;;;17.99;55.60;97627.25;4924465;29;20055;-49
2022/10/22 08:28:35;;;;;;;1.95;1.58;;;15.20;99.90;;;18.02;55.55;97634.91;4924719;29;20058;-47
2022/10/22 08:31:06;;;;;;;1.23;0.75;;;15.30;99.90;;;18.05;55.71;97632.66;4925772;29;20050;-47
2022/10/22 08:33:35;;;;;;;3.15;0.85;;;15.30;99.90;;;18.13;55.54;97634.28;4928828;29;20052;-48
2022/10/22 08:36:03;;;;;;;0.75;0.52;;;15.40;99.90;;;18.14;55.55;97637.81;4927850;29;20071;-48
2022/10/22 08:38:31;;;;;;;1.50;1.15;;;15.50;99.90;;;18.20;55.52;97631.56;4928058;29;20059;-45
2022/10/22 08:41:15;;;;;;;1.33;0.75;;;15.50;99.90;;;18.28;55.58;97637.59;4903833;29;20064;-46
2022/10/22 08:44:10;;;;;;;1.25;0.73;;;15.50;99.90;;;18.34;55.41;97637.75;4923245;29;20046;-48
2022/10/22 08:46:56;;;;;;;2.67;0.80;;;15.60;99.90;;;18.42;55.24;97643.75;4906228;29;20278;-46
2022/10/22 08:49:35;;;;;;;0.50;0.47;;;15.70;99.90;;;18.46;55.38;97641.47;4924082;29;20050;-48
2022/10/22 08:52:19;;;;;;;1.88;0.90;;;15.80;99.90;;;18.55;55.52;97637.50;4908386;29;20054;-51
2022/10/22 08:54:57;;;;;;;2.65;0.90;;;15.80;99.90;;;18.60;55.45;97642.25;4908270;29;20070;-51
2022/10/22 08:58:05;;;;;;;1.30;0.90;;;15.90;99.90;;;18.66;55.51;97631.44;4925436;29;20360;-48
2022/10/22 09:00:44;;;;;;;1.77;1.35;;;16.00;99.90;;;18.76;55.35;97639.06;4911893;29;20249;-46
2022/10/22 09:03:41;;;;;;;1.48;0.65;;;16.10;99.90;;;18.83;55.46;97636.41;4926835;29;20054;-48
2022/10/22 09:06:30;;;;;;;1.30;0.80;;;16.20;99.90;;;18.86;55.57;97647.59;4911068;29;20044;-48
2022/10/22 09:09:00;;;;;;;1.85;1.65;;;16.30;99.90;;;18.90;55.48;97647.97;4922230;29;20269;-49
2022/10/22 09:11:36;;;;;;;2.22;0.90;;;16.30;99.90;;;18.95;55.56;97645.47;4923488;29;20265;-47
2022/10/22 09:14:07;;;;;;;3.25;1.50;;;16.30;99.90;;;18.97;55.69;97648.78;4906630;29;20350;-48
2022/10/22 09:16:54;;;;;;;2.78;1.42;;;16.40;99.90;;;19.02;55.68;97650.84;4906091;29;20060;-46
2022/10/22 09:19:45;;;;;;;2.40;1.75;;;16.40;99.90;;;19.11;55.72;97651.41;4923929;29;20372;-49
2022/10/22 09:22:45;;;;;;;2.40;1.00;;;16.50;99.90;;;19.15;55.60;97652.63;4892483;29;20056;-48
2022/10/22 09:25:25;;;;;;;2.40;1.10;;;16.50;99.90;;;19.19;55.24;97646.59;4908409;29;20342;-48
2022/10/22 09:27:57;;;;;;;3.92;1.30;;;16.50;99.90;;;19.20;55.17;97650.94;4911148;29;20037;-47
2022/10/22 09:30:32;;;;;;;1.42;1.05;;;16.60;99.90;;;19.27;55.09;97653.63;4927664;29;20044;-48
2022/10/22 09:33:04;;;;;;;2.10;0.82;;;16.70;99.90;;;19.31;55.29;97660.22;4927152;29;20048;-48
2022/10/22 09:35:43;;;;;;;4.30;1.52;;;16.70;99.90;;;19.33;55.11;97662.69;4927049;29;20071;-46
2022/10/22 09:38:15;;;;;;;5.03;1.02;;;16.70;99.90;;;19.35;54.81;97661.44;4926341;29;20249;-48
2022/10/22 09:40:53;;;;;;;6.38;1.98;;;16.70;99.90;;;19.39;54.72;97670.75;4927408;29;20048;-50
2022/10/22 09:43:21;;;;;;;3.22;1.60;;;16.70;99.30;;;19.43;54.73;97673.88;4925948;29;20254;-48
2022/10/22 09:45:57;;;;;;;1.63;1.13;;;16.80;99.50;;;19.45;54.98;97678.00;4927325;29;20068;-52
2022/10/22 09:48:38;;;;;;;4.30;1.30;;;16.80;99.70;;;19.49;54.83;97675.69;4927131;29;20048;-48
2022/10/22 09:51:35;;;;;;;1.30;0.90;;;16.90;99.60;;;19.53;54.54;97684.19;4925304;29;20052;-48
2022/10/22 09:54:32;;;;;;;1.75;1.00;;;16.90;98.30;;;19.50;54.18;97696.22;4907734;29;20056;-51
2022/10/22 09:57:16;;;;;;;1.05;0.55;;;17.00;96.40;;;19.56;54.22;97694.53;4908398;29;20048;-50
2022/10/22 09:59:48;;;;;;;1.27;1.00;;;17.00;97.40;;;19.60;54.35;97699.31;4908205;29;20056;-49
2022/10/22 10:02:27;;;;;;;3.80;1.67;;;17.00;97.70;;;19.67;54.45;97691.97;4907476;29;20059;-48
2022/10/22 10:05:20;;;;;;;1.48;0.90;;;17.10;97.60;;;19.80;54.41;97696.47;4907474;29;20059;-51
2022/10/22 10:07:48;;;;;;;1.08;0.90;;;17.20;97.90;;;19.85;54.11;97709.31;4908088;29;20059;-49
2022/10/22 10:10:27;;;;;;;1.25;0.88;;;17.30;97.70;;;19.92;53.73;97706.59;4898345;29;20048;-51
2022/10/22 10:13:02;;;;;;;1.13;0.90;;;17.40;95.30;;;19.98;53.62;97709.22;4907170;29;20068;-49
2022/10/22 10:15:44;;;;;;;1.20;0.90;;;17.40;94.60;;;19.92;53.25;97712.81;4906252;29;20052;-50
2022/10/22 10:18:55;;;;;;;1.85;0.98;;;17.50;91.90;;;19.87;52.67;97715.31;4907673;29;20063;-48
2022/10/22 10:21:36;;;;;;;0.88;0.70;;;17.70;90.10;;;20.05;52.73;97718.13;4906804;29;20059;-50
2022/10/22 10:24:31;;;;;;;1.77;0.90;;;17.70;89.90;;;20.15;52.94;97723.03;4906508;29;20056;-49
2022/10/22 10:27:14;;;;;;;1.40;0.95;;;17.70;91.30;;;20.06;53.29;97725.19;4907217;29;20045;-48
2022/10/22 10:29:51;;;;;;;0.88;0.88;;;17.70;93.20;;;20.10;53.32;97725.56;4906661;29;20058;-50
2022/10/22 10:32:29;;;;;;;1.13;0.93;;;17.60;93.20;;;20.05;52.62;97730.81;4906401;29;20053;-50
2022/10/22 10:35:20;;;;;;;1.15;0.80;;;17.50;91.90;;;19.86;52.51;97730.72;4907130;29;20055;-49
2022/10/22 10:38:20;;;;;;;1.40;0.80;;;17.40;92.60;;;19.89;52.85;97736.72;4907894;29;20354;-48
2022/10/22 10:41:16;;;;;;;1.52;0.65;;;17.30;92.90;;;19.83;52.67;97736.56;4926215;29;20048;-51
2022/10/22 10:44:11;;;;;;;1.23;1.00;;;17.30;90.80;;;19.83;52.66;97733.88;4926004;29;20380;-47
2022/10/22 10:47:16;;;;;;;1.98;1.25;;;17.30;92.10;;;19.87;52.65;97742.34;4925204;29;20056;-48